sensor_id;sensor_type;location;lat;lon;timestamp;pressure;altitude;pressure_sealevel;temperature;humidity
32324;BME280;25666;44.350;9.222;2022-07-23T00:00:39;101634.13;;;25.12;100.00
32324;BME280;25666;44.350;9.222;2022-07-23T00:03:05;101630.06;;;25.10;100.00
32324;BME280;25666;44.350;9.222;2022-07-23T00:05:31;101617.47;;;25.11;100.00
32324;BME280;25666;44.350;9.222;2022-07-23T00:07:57;101609.19;;;25.20;100.00
32324;BME280;25666;44.350;9.222;2022-07-23T00:10:22;101615.78;;;25.13;100.00
32324;BME280;25666;44.350;9.222;2022-07-23T00:12:48;101623.88;;;25.18;100.00
32324;BME280;25666;44.350;9.222;2022-07-23T00:15:13;101622.63;;;25.19;100.00
32324;BME280;25666;44.350;9.222;2022-07-23T00:17:39;101618.97;;;25.19;100.00
32324;BME280;25666;44.350;9.222;2022-07-23T00:20:05;101618.81;;;25.29;100.00
32324;BME280;25666;44.350;9.222;2022-07-23T00:22:31;101618.00;;;25.29;100.00
32324;BME280;25666;44.350;9.222;2022-07-23T00:24:56;101624.19;;;25.24;100.00
32324;BME280;25666;44.350;9.222;2022-07-23T00:27:22;101617.63;;;25.27;100.00
32324;BME280;25666;44.350;9.222;2022-07-23T00:29:51;101618.22;;;25.15;100.00
32324;BME280;25666;44.350;9.222;2022-07-23T00:32:16;101626.16;;;25.00;100.00
32324;BME280;25666;44.350;9.222;2022-07-23T00:34:45;101627.00;;;24.97;100.00
32324;BME280;25666;44.350;9.222;2022-07-23T00:37:10;101617.50;;;25.07;100.00
32324;BME280;25666;44.350;9.222;2022-07-23T00:39:36;101626.44;;;25.09;100.00
32324;BME280;25666;44.350;9.222;2022-07-23T00:42:04;101619.50;;;25.10;100.00
32324;BME280;25666;44.350;9.222;2022-07-23T00:44:30;101626.09;;;25.03;100.00
32324;BME280;25666;44.350;9.222;2022-07-23T00:46:58;101628.72;;;24.91;100.00
32324;BME280;25666;44.350;9.222;2022-07-23T00:49:27;101631.44;;;25.01;100.00
32324;BME280;25666;44.350;9.222;2022-07-23T00:51:54;101633.47;;;25.01;100.00
32324;BME280;25666;44.350;9.222;2022-07-23T00:54:23;101628.75;;;25.18;100.00
32324;BME280;25666;44.350;9.222;2022-07-23T00:56:49;101620.56;;;25.20;100.00
32324;BME280;25666;44.350;9.222;2022-07-23T00:59:15;101617.94;;;25.32;100.00
32324;BME280;25666;44.350;9.222;2022-07-23T01:01:41;101624.66;;;25.19;100.00
32324;BME280;25666;44.350;9.222;2022-07-23T01:04:09;101613.81;;;25.10;100.00
32324;BME280;25666;44.350;9.222;2022-07-23T01:06:37;101627.28;;;25.06;100.00
32324;BME280;25666;44.350;9.222;2022-07-23T01:09:05;101620.66;;;25.13;100.00
32324;BME280;25666;44.350;9.222;2022-07-23T01:11:35;101624.91;;;25.01;100.00
32324;BME280;25666;44.350;9.222;2022-07-23T01:14:23;101629.13;;;24.93;100.00
32324;BME280;25666;44.350;9.222;2022-07-23T01:16:49;101623.78;;;24.95;100.00
32324;BME280;25666;44.350;9.222;2022-07-23T01:19:16;101625.00;;;24.94;100.00
32324;BME280;25666;44.350;9.222;2022-07-23T01:21:52;101628.63;;;24.98;100.00
32324;BME280;25666;44.350;9.222;2022-07-23T01:24:18;101612.66;;;25.04;100.00
32324;BME280;25666;44.350;9.222;2022-07-23T01:26:59;101619.94;;;25.09;100.00
32324;BME280;25666;44.350;9.222;2022-07-23T01:29:24;101615.38;;;25.15;100.00
32324;BME280;25666;44.350;9.222;2022-07-23T01:31:51;101611.34;;;25.12;100.00
32324;BME280;25666;44.350;9.222;2022-07-23T01:34:17;101602.34;;;25.14;100.00
32324;BME280;25666;44.350;9.222;2022-07-23T01:36:43;101600.69;;;25.16;100.00
32324;BME280;25666;44.350;9.222;2022-07-23T01:39:09;101602.19;;;25.24;100.00
32324;BME280;25666;44.350;9.222;2022-07-23T01:41:35;101596.06;;;25.26;100.00
32324;BME280;25666;44.350;9.222;2022-07-23T01:44:01;101602.25;;;25.21;100.00
32324;BME280;25666;44.350;9.222;2022-07-23T01:46:27;101596.16;;;25.19;100.00
32324;BME280;25666;44.350;9.222;2022-07-23T01:48:53;101604.06;;;25.08;100.00
32324;BME280;25666;44.350;9.222;2022-07-23T01:51:41;101594.94;;;25.20;100.00
32324;BME280;25666;44.350;9.222;2022-07-23T01:54:29;101598.22;;;25.18;100.00
32324;BME280;25666;44.350;9.222;2022-07-23T01:56:56;101592.72;;;25.04;100.00
32324;BME280;25666;44.350;9.222;2022-07-23T01:59:22;101603.31;;;25.03;100.00
32324;BME280;25666;44.350;9.222;2022-07-23T02:01:48;101607.78;;;25.04;100.00
32324;BME280;25666;44.350;9.222;2022-07-23T02:04:17;101598.16;;;24.95;100.00
32324;BME280;25666;44.350;9.222;2022-07-23T02:06:43;101610.94;;;24.83;100.00
32324;BME280;25666;44.350;9.222;2022-07-23T02:09:09;101610.13;;;24.79;100.00
32324;BME280;25666;44.350;9.222;2022-07-23T02:11:34;101618.69;;;24.79;100.00
32324;BME280;25666;44.350;9.222;2022-07-23T02:14:00;101617.09;;;24.75;100.00
32324;BME280;25666;44.350;9.222;2022-07-23T02:16:25;101617.53;;;24.73;100.00
32324;BME280;25666;44.350;9.222;2022-07-23T02:18:51;101621.19;;;24.74;100.00
32324;BME280;25666;44.350;9.222;2022-07-23T02:21:16;101613.84;;;24.76;100.00
32324;BME280;25666;44.350;9.222;2022-07-23T02:23:42;101610.66;;;24.71;100.00
32324;BME280;25666;44.350;9.222;2022-07-23T02:26:08;101624.50;;;24.69;100.00
32324;BME280;25666;44.350;9.222;2022-07-23T02:28:33;101613.63;;;24.60;100.00
32324;BME280;25666;44.350;9.222;2022-07-23T02:30:59;101625.09;;;24.53;100.00
32324;BME280;25666;44.350;9.222;2022-07-23T02:33:24;101622.25;;;24.53;100.00
32324;BME280;25666;44.350;9.222;2022-07-23T02:35:50;101622.69;;;24.51;100.00
32324;BME280;25666;44.350;9.222;2022-07-23T02:38:18;101628.75;;;24.53;100.00
32324;BME280;25666;44.350;9.222;2022-07-23T02:40:44;101626.94;;;24.70;100.00
32324;BME280;25666;44.350;9.222;2022-07-23T02:43:10;101630.97;;;24.73;100.00
32324;BME280;25666;44.350;9.222;2022-07-23T02:45:37;101635.97;;;24.65;100.00
32324;BME280;25666;44.350;9.222;2022-07-23T02:48:03;101633.59;;;24.57;100.00
32324;BME280;25666;44.350;9.222;2022-07-23T02:50:29;101638.47;;;24.56;100.00
32324;BME280;25666;44.350;9.222;2022-07-23T02:52:56;101630.84;;;24.49;100.00
32324;BME280;25666;44.350;9.222;2022-07-23T02:55:23;101628.47;;;24.44;100.00
32324;BME280;25666;44.350;9.222;2022-07-23T02:57:49;101637.84;;;24.41;100.00
32324;BME280;25666;44.350;9.222;2022-07-23T03:00:14;101633.63;;;24.53;100.00
32324;BME280;25666;44.350;9.222;2022-07-23T03:02:40;101638.47;;;24.56;100.00
32324;BME280;25666;44.350;9.222;2022-07-23T03:05:06;101635.25;;;24.54;100.00
32324;BME280;25666;44.350;9.222;2022-07-23T03:07:33;101637.09;;;24.71;100.00
32324;BME280;25666;44.350;9.222;2022-07-23T03:09:59;101630.75;;;24.57;100.00
32324;BME280;25666;44.350;9.222;2022-07-23T03:12:24;101629.53;;;24.58;100.00
32324;BME280;25666;44.350;9.222;2022-07-23T03:14:50;101636.47;;;24.53;100.00
32324;BME280;25666;44.350;9.222;2022-07-23T03:17:16;101637.75;;;24.52;100.00
32324;BME280;25666;44.350;9.222;2022-07-23T03:19:42;101639.25;;;24.60;100.00
32324;BME280;25666;44.350;9.222;2022-07-23T03:22:08;101639.28;;;24.57;100.00
32324;BME280;25666;44.350;9.222;2022-07-23T03:24:34;101643.28;;;24.63;100.00
32324;BME280;25666;44.350;9.222;2022-07-23T03:27:24;101643.41;;;24.56;100.00
32324;BME280;25666;44.350;9.222;2022-07-23T03:29:52;101640.41;;;24.66;100.00
32324;BME280;25666;44.350;9.222;2022-07-23T03:32:18;101638.00;;;24.65;100.00
32324;BME280;25666;44.350;9.222;2022-07-23T03:34:44;101646.00;;;24.73;100.00
32324;BME280;25666;44.350;9.222;2022-07-23T03:37:10;101651.22;;;24.78;100.00
32324;BME280;25666;44.350;9.222;2022-07-23T03:39:36;101656.63;;;24.69;100.00
32324;BME280;25666;44.350;9.222;2022-07-23T03:42:02;101652.72;;;24.56;100.00
32324;BME280;25666;44.350;9.222;2022-07-23T03:44:27;101645.75;;;24.61;100.00
32324;BME280;25666;44.350;9.222;2022-07-23T03:46:53;101652.94;;;24.72;100.00
32324;BME280;25666;44.350;9.222;2022-07-23T03:49:19;101651.88;;;24.59;100.00
32324;BME280;25666;44.350;9.222;2022-07-23T03:51:45;101662.03;;;24.60;100.00
32324;BME280;25666;44.350;9.222;2022-07-23T03:54:12;101659.91;;;24.68;100.00
32324;BME280;25666;44.350;9.222;2022-07-23T03:56:38;101655.47;;;24.63;100.00
32324;BME280;25666;44.350;9.222;2022-07-23T03:59:04;101661.78;;;24.81;100.00
32324;BME280;25666;44.350;9.222;2022-07-23T04:01:30;101654.88;;;24.79;100.00
32324;BME280;25666;44.350;9.222;2022-07-23T04:03:57;101656.72;;;24.62;100.00
32324;BME280;25666;44.350;9.222;2022-07-23T04:06:23;101656.00;;;24.55;100.00
32324;BME280;25666;44.350;9.222;2022-07-23T04:08:49;101652.25;;;24.61;100.00
32324;BME280;25666;44.350;9.222;2022-07-23T04:11:15;101658.25;;;24.70;100.00
32324;BME280;25666;44.350;9.222;2022-07-23T04:13:41;101657.41;;;24.73;100.00
32324;BME280;25666;44.350;9.222;2022-07-23T04:16:07;101646.38;;;24.75;100.00
32324;BME280;25666;44.350;9.222;2022-07-23T04:18:33;101651.63;;;24.84;100.00
32324;BME280;25666;44.350;9.222;2022-07-23T04:21:10;101651.53;;;24.87;100.00
32324;BME280;25666;44.350;9.222;2022-07-23T04:23:36;101653.22;;;24.85;100.00
32324;BME280;25666;44.350;9.222;2022-07-23T04:26:02;101655.44;;;25.00;100.00
32324;BME280;25666;44.350;9.222;2022-07-23T04:28:29;101657.97;;;24.95;100.00
32324;BME280;25666;44.350;9.222;2022-07-23T04:30:58;101651.50;;;24.91;100.00
32324;BME280;25666;44.350;9.222;2022-07-23T04:33:24;101645.31;;;24.62;100.00
32324;BME280;25666;44.350;9.222;2022-07-23T04:35:53;101648.50;;;24.71;100.00
32324;BME280;25666;44.350;9.222;2022-07-23T04:38:19;101649.63;;;24.77;100.00
32324;BME280;25666;44.350;9.222;2022-07-23T04:40:47;101655.38;;;24.74;100.00
32324;BME280;25666;44.350;9.222;2022-07-23T04:43:13;101650.59;;;24.64;100.00
32324;BME280;25666;44.350;9.222;2022-07-23T04:45:46;101650.72;;;24.53;100.00
32324;BME280;25666;44.350;9.222;2022-07-23T04:48:12;101654.03;;;24.85;100.00
32324;BME280;25666;44.350;9.222;2022-07-23T04:50:38;101655.13;;;24.95;100.00
32324;BME280;25666;44.350;9.222;2022-07-23T04:53:04;101660.09;;;25.18;100.00
32324;BME280;25666;44.350;9.222;2022-07-23T04:55:29;101654.31;;;25.25;100.00
32324;BME280;25666;44.350;9.222;2022-07-23T04:57:55;101643.81;;;25.45;100.00
32324;BME280;25666;44.350;9.222;2022-07-23T05:00:21;101652.91;;;25.36;100.00
32324;BME280;25666;44.350;9.222;2022-07-23T05:02:47;101661.72;;;25.45;100.00
32324;BME280;25666;44.350;9.222;2022-07-23T05:05:12;101655.56;;;25.47;100.00
32324;BME280;25666;44.350;9.222;2022-07-23T05:07:40;101659.66;;;25.49;100.00
32324;BME280;25666;44.350;9.222;2022-07-23T05:10:05;101649.81;;;25.54;100.00
32324;BME280;25666;44.350;9.222;2022-07-23T05:12:31;101636.44;;;25.74;100.00
32324;BME280;25666;44.350;9.222;2022-07-23T05:14:58;101646.09;;;26.03;100.00
32324;BME280;25666;44.350;9.222;2022-07-23T05:17:24;101650.56;;;26.04;100.00
32324;BME280;25666;44.350;9.222;2022-07-23T05:19:51;101646.91;;;26.04;100.00
32324;BME280;25666;44.350;9.222;2022-07-23T05:22:16;101651.03;;;26.03;100.00
32324;BME280;25666;44.350;9.222;2022-07-23T05:24:42;101645.53;;;26.16;100.00
32324;BME280;25666;44.350;9.222;2022-07-23T05:27:08;101640.56;;;26.39;100.00
32324;BME280;25666;44.350;9.222;2022-07-23T05:29:34;101643.81;;;26.61;100.00
32324;BME280;25666;44.350;9.222;2022-07-23T05:32:00;101643.53;;;26.95;100.00
32324;BME280;25666;44.350;9.222;2022-07-23T05:34:27;101642.63;;;27.18;100.00
32324;BME280;25666;44.350;9.222;2022-07-23T05:36:52;101650.72;;;27.03;100.00
32324;BME280;25666;44.350;9.222;2022-07-23T05:39:19;101643.31;;;27.57;100.00
32324;BME280;25666;44.350;9.222;2022-07-23T05:41:45;101650.66;;;27.75;100.00
32324;BME280;25666;44.350;9.222;2022-07-23T05:44:10;101648.50;;;27.79;100.00
32324;BME280;25666;44.350;9.222;2022-07-23T05:46:39;101644.88;;;28.97;100.00
32324;BME280;25666;44.350;9.222;2022-07-23T05:49:07;101657.38;;;30.16;100.00
32324;BME280;25666;44.350;9.222;2022-07-23T05:51:58;101662.72;;;30.83;100.00
32324;BME280;25666;44.350;9.222;2022-07-23T05:54:39;101661.97;;;30.48;100.00
32324;BME280;25666;44.350;9.222;2022-07-23T05:57:05;101653.53;;;30.32;100.00
32324;BME280;25666;44.350;9.222;2022-07-23T05:59:31;101661.66;;;30.46;100.00
32324;BME280;25666;44.350;9.222;2022-07-23T06:01:56;101660.75;;;31.94;100.00
32324;BME280;25666;44.350;9.222;2022-07-23T06:04:22;101667.03;;;31.31;100.00
32324;BME280;25666;44.350;9.222;2022-07-23T06:07:03;101667.91;;;31.80;100.00
32324;BME280;25666;44.350;9.222;2022-07-23T06:09:29;101676.00;;;32.04;100.00
32324;BME280;25666;44.350;9.222;2022-07-23T06:11:54;101671.88;;;32.14;100.00
32324;BME280;25666;44.350;9.222;2022-07-23T06:14:20;101674.41;;;30.67;100.00
32324;BME280;25666;44.350;9.222;2022-07-23T06:16:50;101681.03;;;30.08;100.00
32324;BME280;25666;44.350;9.222;2022-07-23T06:19:16;101676.38;;;29.38;100.00
32324;BME280;25666;44.350;9.222;2022-07-23T06:21:42;101683.19;;;29.15;100.00
32324;BME280;25666;44.350;9.222;2022-07-23T06:24:07;101685.03;;;28.52;100.00
32324;BME280;25666;44.350;9.222;2022-07-23T06:26:33;101677.69;;;28.51;100.00
32324;BME280;25666;44.350;9.222;2022-07-23T06:28:59;101685.94;;;28.49;100.00
32324;BME280;25666;44.350;9.222;2022-07-23T06:31:25;101676.47;;;28.64;100.00
32324;BME280;25666;44.350;9.222;2022-07-23T06:33:51;101685.63;;;28.76;100.00
32324;BME280;25666;44.350;9.222;2022-07-23T06:36:16;101695.78;;;30.78;100.00
32324;BME280;25666;44.350;9.222;2022-07-23T06:38:42;101695.63;;;30.60;100.00
32324;BME280;25666;44.350;9.222;2022-07-23T06:41:08;101697.84;;;29.59;100.00
32324;BME280;25666;44.350;9.222;2022-07-23T06:43:34;101697.97;;;29.14;100.00
32324;BME280;25666;44.350;9.222;2022-07-23T06:46:00;101698.38;;;28.87;100.00
32324;BME280;25666;44.350;9.222;2022-07-23T06:48:25;101697.88;;;28.76;100.00
32324;BME280;25666;44.350;9.222;2022-07-23T06:50:51;101701.78;;;28.82;100.00
32324;BME280;25666;44.350;9.222;2022-07-23T06:53:23;101706.03;;;28.78;100.00
32324;BME280;25666;44.350;9.222;2022-07-23T06:55:48;101715.97;;;28.73;100.00
32324;BME280;25666;44.350;9.222;2022-07-23T06:58:14;101706.31;;;28.67;100.00
32324;BME280;25666;44.350;9.222;2022-07-23T07:00:40;101707.69;;;28.46;100.00
32324;BME280;25666;44.350;9.222;2022-07-23T07:03:05;101705.69;;;28.59;100.00
32324;BME280;25666;44.350;9.222;2022-07-23T07:05:31;101694.03;;;28.95;100.00
32324;BME280;25666;44.350;9.222;2022-07-23T07:07:56;101695.69;;;31.65;100.00
32324;BME280;25666;44.350;9.222;2022-07-23T07:10:23;101693.16;;;33.25;100.00
32324;BME280;25666;44.350;9.222;2022-07-23T07:12:48;101689.78;;;34.87;100.00
32324;BME280;25666;44.350;9.222;2022-07-23T07:15:14;101691.75;;;35.20;100.00
32324;BME280;25666;44.350;9.222;2022-07-23T07:17:39;101691.69;;;36.74;100.00
32324;BME280;25666;44.350;9.222;2022-07-23T07:20:06;101690.06;;;36.93;100.00
32324;BME280;25666;44.350;9.222;2022-07-23T07:22:31;101684.38;;;37.04;100.00
32324;BME280;25666;44.350;9.222;2022-07-23T07:24:57;101688.19;;;37.78;100.00
32324;BME280;25666;44.350;9.222;2022-07-23T07:27:23;101681.81;;;38.11;100.00
32324;BME280;25666;44.350;9.222;2022-07-23T07:29:48;101681.88;;;38.22;100.00
32324;BME280;25666;44.350;9.222;2022-07-23T07:32:14;101682.31;;;38.52;100.00
32324;BME280;25666;44.350;9.222;2022-07-23T07:34:39;101680.47;;;38.06;100.00
32324;BME280;25666;44.350;9.222;2022-07-23T07:37:05;101683.25;;;38.32;100.00
32324;BME280;25666;44.350;9.222;2022-07-23T07:39:30;101681.84;;;38.17;100.00
32324;BME280;25666;44.350;9.222;2022-07-23T07:41:56;101675.66;;;37.92;100.00
32324;BME280;25666;44.350;9.222;2022-07-23T07:44:22;101681.00;;;38.05;100.00
32324;BME280;25666;44.350;9.222;2022-07-23T07:46:47;101673.69;;;38.85;100.00
32324;BME280;25666;44.350;9.222;2022-07-23T07:49:13;101684.84;;;39.15;100.00
32324;BME280;25666;44.350;9.222;2022-07-23T07:51:38;101689.66;;;39.68;100.00
32324;BME280;25666;44.350;9.222;2022-07-23T07:54:04;101674.63;;;38.49;100.00
32324;BME280;25666;44.350;9.222;2022-07-23T07:56:30;101680.06;;;38.25;100.00
32324;BME280;25666;44.350;9.222;2022-07-23T07:58:55;101681.63;;;37.83;100.00
32324;BME280;25666;44.350;9.222;2022-07-23T08:01:21;101681.00;;;38.05;100.00
32324;BME280;25666;44.350;9.222;2022-07-23T08:03:46;101679.50;;;37.47;100.00
32324;BME280;25666;44.350;9.222;2022-07-23T08:06:12;101670.31;;;36.71;100.00
32324;BME280;25666;44.350;9.222;2022-07-23T08:08:37;101675.25;;;35.40;100.00
32324;BME280;25666;44.350;9.222;2022-07-23T08:11:03;101671.66;;;34.01;100.00
32324;BME280;25666;44.350;9.222;2022-07-23T08:13:28;101675.72;;;33.62;100.00
32324;BME280;25666;44.350;9.222;2022-07-23T08:15:54;101682.44;;;32.99;100.00
32324;BME280;25666;44.350;9.222;2022-07-23T08:18:20;101684.88;;;32.55;100.00
32324;BME280;25666;44.350;9.222;2022-07-23T08:20:46;101686.13;;;32.54;100.00
32324;BME280;25666;44.350;9.222;2022-07-23T08:23:11;101692.09;;;31.92;100.00
32324;BME280;25666;44.350;9.222;2022-07-23T08:25:39;101693.25;;;31.95;100.00
32324;BME280;25666;44.350;9.222;2022-07-23T08:28:08;101697.66;;;32.35;100.00
32324;BME280;25666;44.350;9.222;2022-07-23T08:30:36;101693.31;;;32.13;100.00
32324;BME280;25666;44.350;9.222;2022-07-23T08:33:06;101700.16;;;32.06;100.00
32324;BME280;25666;44.350;9.222;2022-07-23T08:35:44;101699.72;;;31.77;100.00
32324;BME280;25666;44.350;9.222;2022-07-23T08:38:13;101697.13;;;31.39;100.00
32324;BME280;25666;44.350;9.222;2022-07-23T08:40:41;101699.97;;;31.30;100.00
32324;BME280;25666;44.350;9.222;2022-07-23T08:43:10;101697.16;;;31.17;100.00
32324;BME280;25666;44.350;9.222;2022-07-23T08:45:41;101696.03;;;31.15;100.00
32324;BME280;25666;44.350;9.222;2022-07-23T08:48:12;101696.94;;;31.03;100.00
32324;BME280;25666;44.350;9.222;2022-07-23T08:50:41;101708.84;;;30.79;100.00
32324;BME280;25666;44.350;9.222;2022-07-23T08:53:07;101702.84;;;30.87;100.00
32324;BME280;25666;44.350;9.222;2022-07-23T08:55:34;101709.28;;;30.91;100.00
32324;BME280;25666;44.350;9.222;2022-07-23T08:58:00;101711.53;;;30.74;100.00
32324;BME280;25666;44.350;9.222;2022-07-23T09:00:25;101715.53;;;30.76;100.00
32324;BME280;25666;44.350;9.222;2022-07-23T09:02:51;101709.50;;;30.96;100.00
32324;BME280;25666;44.350;9.222;2022-07-23T09:05:18;101710.63;;;30.99;100.00
32324;BME280;25666;44.350;9.222;2022-07-23T09:08:12;101712.47;;;30.93;100.00
32324;BME280;25666;44.350;9.222;2022-07-23T09:10:56;101709.38;;;30.65;100.00
32324;BME280;25666;44.350;9.222;2022-07-23T09:15:55;101715.94;;;30.66;100.00
32324;BME280;25666;44.350;9.222;2022-07-23T09:21:12;101711.59;;;30.83;100.00
32324;BME280;25666;44.350;9.222;2022-07-23T09:23:45;101702.97;;;30.61;100.00
32324;BME280;25666;44.350;9.222;2022-07-23T09:26:18;101710.78;;;30.61;100.00
32324;BME280;25666;44.350;9.222;2022-07-23T09:28:56;101705.47;;;30.72;100.00
32324;BME280;25666;44.350;9.222;2022-07-23T09:31:24;101695.81;;;30.32;100.00
32324;BME280;25666;44.350;9.222;2022-07-23T09:33:50;101694.47;;;30.79;100.00
32324;BME280;25666;44.350;9.222;2022-07-23T09:36:27;101693.63;;;30.92;100.00
32324;BME280;25666;44.350;9.222;2022-07-23T09:38:53;101700.06;;;30.96;100.00
32324;BME280;25666;44.350;9.222;2022-07-23T09:41:18;101701.88;;;31.02;100.00
32324;BME280;25666;44.350;9.222;2022-07-23T09:43:44;101702.72;;;30.90;100.00
32324;BME280;25666;44.350;9.222;2022-07-23T09:46:23;101697.22;;;30.83;100.00
32324;BME280;25666;44.350;9.222;2022-07-23T09:48:50;101700.88;;;30.96;100.00
32324;BME280;25666;44.350;9.222;2022-07-23T09:51:20;101698.09;;;30.93;100.00
32324;BME280;25666;44.350;9.222;2022-07-23T09:53:48;101705.81;;;30.96;100.00
32324;BME280;25666;44.350;9.222;2022-07-23T09:56:14;101707.28;;;30.78;100.00
32324;BME280;25666;44.350;9.222;2022-07-23T09:58:41;101695.63;;;30.82;100.00
32324;BME280;25666;44.350;9.222;2022-07-23T10:01:31;101693.28;;;30.90;100.00
32324;BME280;25666;44.350;9.222;2022-07-23T10:03:58;101697.09;;;30.65;100.00
32324;BME280;25666;44.350;9.222;2022-07-23T10:06:45;101694.69;;;30.85;100.00
32324;BME280;25666;44.350;9.222;2022-07-23T10:09:32;101699.84;;;30.90;100.00
32324;BME280;25666;44.350;9.222;2022-07-23T10:12:15;101706.06;;;30.89;100.00
32324;BME280;25666;44.350;9.222;2022-07-23T10:14:53;101711.47;;;30.87;100.00
32324;BME280;25666;44.350;9.222;2022-07-23T10:17:19;101703.31;;;30.63;100.00
32324;BME280;25666;44.350;9.222;2022-07-23T10:19:45;101712.47;;;30.71;100.00
32324;BME280;25666;44.350;9.222;2022-07-23T10:22:13;101703.44;;;30.60;100.00
32324;BME280;25666;44.350;9.222;2022-07-23T10:28:10;101706.44;;;30.56;100.00
32324;BME280;25666;44.350;9.222;2022-07-23T10:37:07;101698.16;;;30.58;100.00
32324;BME280;25666;44.350;9.222;2022-07-23T10:39:38;101698.19;;;30.46;100.00
32324;BME280;25666;44.350;9.222;2022-07-23T10:42:17;101712.88;;;30.13;100.00
32324;BME280;25666;44.350;9.222;2022-07-23T10:44:47;101703.28;;;30.42;100.00
32324;BME280;25666;44.350;9.222;2022-07-23T10:47:28;101698.97;;;30.12;100.00
32324;BME280;25666;44.350;9.222;2022-07-23T10:50:26;101693.38;;;30.30;100.00
32324;BME280;25666;44.350;9.222;2022-07-23T10:58:05;101692.13;;;30.31;100.00
32324;BME280;25666;44.350;9.222;2022-07-23T11:00:32;101689.72;;;30.29;100.00
32324;BME280;25666;44.350;9.222;2022-07-23T11:03:03;101691.31;;;30.31;100.00
32324;BME280;25666;44.350;9.222;2022-07-23T11:05:40;101684.91;;;30.26;100.00
32324;BME280;25666;44.350;9.222;2022-07-23T11:17:25;101678.00;;;30.24;100.00
32324;BME280;25666;44.350;9.222;2022-07-23T11:22:40;101681.91;;;30.30;100.00
32324;BME280;25666;44.350;9.222;2022-07-23T11:25:13;101683.63;;;30.27;100.00
32324;BME280;25666;44.350;9.222;2022-07-23T11:28:11;101673.75;;;30.41;100.00
32324;BME280;25666;44.350;9.222;2022-07-23T11:30:43;101672.84;;;30.32;100.00
32324;BME280;25666;44.350;9.222;2022-07-23T11:35:39;101674.41;;;30.45;100.00
32324;BME280;25666;44.350;9.222;2022-07-23T11:38:22;101679.72;;;30.34;100.00
32324;BME280;25666;44.350;9.222;2022-07-23T11:40:50;101671.84;;;30.13;100.00
32324;BME280;25666;44.350;9.222;2022-07-23T11:43:18;101658.16;;;30.17;100.00
32324;BME280;25666;44.350;9.222;2022-07-23T11:45:49;101667.66;;;30.39;100.00
32324;BME280;25666;44.350;9.222;2022-07-23T11:48:26;101668.59;;;30.23;100.00
32324;BME280;25666;44.350;9.222;2022-07-23T11:50:53;101659.84;;;30.40;100.00
32324;BME280;25666;44.350;9.222;2022-07-23T11:53:29;101655.94;;;30.34;100.00
32324;BME280;25666;44.350;9.222;2022-07-23T11:56:09;101652.38;;;30.29;100.00
32324;BME280;25666;44.350;9.222;2022-07-23T11:58:35;101654.16;;;30.14;100.00
32324;BME280;25666;44.350;9.222;2022-07-23T12:01:02;101656.44;;;30.19;100.00
32324;BME280;25666;44.350;9.222;2022-07-23T12:03:27;101646.63;;;30.29;100.00
32324;BME280;25666;44.350;9.222;2022-07-23T12:05:59;101647.09;;;30.28;100.00
32324;BME280;25666;44.350;9.222;2022-07-23T12:08:25;101653.78;;;30.25;100.00
32324;BME280;25666;44.350;9.222;2022-07-23T12:10:50;101646.63;;;30.29;100.00
32324;BME280;25666;44.350;9.222;2022-07-23T12:13:19;101643.53;;;30.24;100.00
32324;BME280;25666;44.350;9.222;2022-07-23T12:15:47;101645.50;;;30.27;100.00
32324;BME280;25666;44.350;9.222;2022-07-23T12:18:20;101640.88;;;30.29;100.00
32324;BME280;25666;44.350;9.222;2022-07-23T12:20:52;101641.94;;;30.23;100.00
32324;BME280;25666;44.350;9.222;2022-07-23T12:23:20;101643.19;;;30.35;100.00
32324;BME280;25666;44.350;9.222;2022-07-23T12:25:47;101647.44;;;30.30;100.00
32324;BME280;25666;44.350;9.222;2022-07-23T12:28:31;101637.31;;;30.38;100.00
32324;BME280;25666;44.350;9.222;2022-07-23T12:30:59;101637.66;;;30.40;100.00
32324;BME280;25666;44.350;9.222;2022-07-23T12:35:54;101637.31;;;30.38;100.00
32324;BME280;25666;44.350;9.222;2022-07-23T12:38:21;101636.94;;;30.49;100.00
32324;BME280;25666;44.350;9.222;2022-07-23T12:40:55;101631.97;;;30.49;100.00
32324;BME280;25666;44.350;9.222;2022-07-23T12:43:29;101637.22;;;30.42;100.00
32324;BME280;25666;44.350;9.222;2022-07-23T12:46:01;101642.53;;;30.52;100.00
32324;BME280;25666;44.350;9.222;2022-07-23T12:48:29;101638.91;;;30.39;100.00
32324;BME280;25666;44.350;9.222;2022-07-23T12:51:00;101638.38;;;30.32;100.00
32324;BME280;25666;44.350;9.222;2022-07-23T12:53:32;101645.25;;;30.34;100.00
32324;BME280;25666;44.350;9.222;2022-07-23T12:56:05;101635.50;;;30.32;100.00
32324;BME280;25666;44.350;9.222;2022-07-23T13:01:08;101651.78;;;30.35;100.00
32324;BME280;25666;44.350;9.222;2022-07-23T13:03:41;101640.19;;;30.38;100.00
32324;BME280;25666;44.350;9.222;2022-07-23T13:06:08;101640.19;;;30.38;100.00
32324;BME280;25666;44.350;9.222;2022-07-23T13:08:39;101634.56;;;30.35;100.00
32324;BME280;25666;44.350;9.222;2022-07-23T13:11:06;101638.69;;;30.34;100.00
32324;BME280;25666;44.350;9.222;2022-07-23T13:13:34;101632.63;;;30.32;100.00
32324;BME280;25666;44.350;9.222;2022-07-23T13:16:01;101642.81;;;30.33;100.00
32324;BME280;25666;44.350;9.222;2022-07-23T13:18:27;101641.56;;;30.34;100.00
32324;BME280;25666;44.350;9.222;2022-07-23T13:20:54;101642.03;;;30.32;100.00
32324;BME280;25666;44.350;9.222;2022-07-23T13:23:20;101641.88;;;30.36;100.00
32324;BME280;25666;44.350;9.222;2022-07-23T13:25:46;101641.16;;;30.22;100.00